createdAt,value
2023-04-02T00:02:46.576Z,7.93
2023-04-02T00:07:58.444Z,8.06
2023-04-02T00:13:09.191Z,8.15
2023-04-02T00:18:18.923Z,8.19
2023-04-02T00:23:26.602Z,8.21
2023-04-02T00:28:34.314Z,8.24
2023-04-02T00:33:45.617Z,8.25
2023-04-02T00:38:53.360Z,8.25
2023-04-02T00:44:03.180Z,8.24
2023-04-02T00:49:16.850Z,8.24
2023-04-02T00:54:29.676Z,8.22
2023-04-02T00:59:50.484Z,8.20
2023-04-02T01:05:00.236Z,8.17
2023-04-02T01:10:24.411Z,8.14
2023-04-02T01:15:38.121Z,8.12
2023-04-02T01:21:07.613Z,8.10
2023-04-02T01:26:25.025Z,8.07
2023-04-02T01:31:37.679Z,8.04
2023-04-02T01:36:51.673Z,8.01
2023-04-02T01:42:07.958Z,7.98
2023-04-02T01:47:18.231Z,7.95
2023-04-02T01:52:38.533Z,7.92
2023-04-02T01:57:48.752Z,7.89
2023-04-02T02:02:56.428Z,7.87
2023-04-02T02:08:04.326Z,7.85
2023-04-02T02:13:18.002Z,7.83
2023-04-02T02:18:25.760Z,7.81
2023-04-02T02:23:33.318Z,7.78
2023-04-02T02:28:44.365Z,7.77
2023-04-02T02:33:57.171Z,7.75
2023-04-02T02:39:15.458Z,7.73
2023-04-02T02:44:29.318Z,7.71
2023-04-02T02:49:40.416Z,7.69
2023-04-02T02:54:50.337Z,7.68
2023-04-02T02:59:59.711Z,7.66
2023-04-02T03:05:09.683Z,7.65
2023-04-02T03:10:24.763Z,7.64
2023-04-02T03:15:40.137Z,7.62
2023-04-02T03:20:54.302Z,7.61
2023-04-02T03:26:10.011Z,7.60
2023-04-02T03:31:26.957Z,7.58
2023-04-02T03:36:38.855Z,7.56
2023-04-02T03:41:52.095Z,7.55
2023-04-02T03:47:06.088Z,7.54
2023-04-02T03:52:16.765Z,7.54
2023-04-02T03:57:31.540Z,7.53
2023-04-02T04:02:45.164Z,7.51
2023-04-02T04:07:57.469Z,7.49
2023-04-02T04:13:14.206Z,7.49
2023-04-02T04:18:35.324Z,7.48
2023-04-02T04:23:52.292Z,7.46
2023-04-02T04:29:10.094Z,7.45
2023-04-02T04:34:23.366Z,7.45
2023-04-02T04:39:43.736Z,7.44
2023-04-02T04:44:57.413Z,7.42
2023-04-02T04:50:11.615Z,7.42
2023-04-02T04:55:32.717Z,7.40
2023-04-02T05:00:46.615Z,7.38
2023-04-02T05:05:54.737Z,7.36
2023-04-02T05:11:07.668Z,7.34
2023-04-02T05:16:23.733Z,7.33
2023-04-02T05:21:40.446Z,7.31
2023-04-02T05:26:51.935Z,7.30
2023-04-02T05:32:06.098Z,7.28
2023-04-02T05:37:19.339Z,7.27
2023-04-02T05:42:30.980Z,7.24
2023-04-02T05:47:44.449Z,7.23
2023-04-02T05:52:58.801Z,7.22
2023-04-02T05:58:34.547Z,7.21
2023-04-02T06:03:52.164Z,7.19
2023-04-02T06:09:06.047Z,7.19
2023-04-02T06:14:15.979Z,7.18
2023-04-02T06:19:29.043Z,7.18
2023-04-02T06:24:39.333Z,7.18
2023-04-02T06:29:52.374Z,7.18
2023-04-02T06:35:00.974Z,7.18
2023-04-02T06:40:25.000Z,7.18
2023-04-02T06:45:36.605Z,7.18
2023-04-02T06:50:56.975Z,7.17
2023-04-02T06:56:08.103Z,7.17
2023-04-02T07:01:24.043Z,7.17
2023-04-02T07:06:32.298Z,7.17
2023-04-02T07:11:41.241Z,7.17
2023-04-02T07:16:49.247Z,7.17
2023-04-02T07:21:57.055Z,7.17
2023-04-02T07:27:07.920Z,7.18
2023-04-02T07:32:16.041Z,7.18
2023-04-02T07:37:23.357Z,7.19
2023-04-02T07:42:30.865Z,7.20
2023-04-02T07:47:38.328Z,7.21
2023-04-02T07:52:46.124Z,7.23
2023-04-02T07:57:55.689Z,7.24
2023-04-02T08:03:03.036Z,7.26
2023-04-02T08:08:10.503Z,7.27
2023-04-02T08:13:19.086Z,7.28
2023-04-02T08:18:27.481Z,7.29
2023-04-02T08:23:35.475Z,7.31
2023-04-02T08:28:43.251Z,7.33
2023-04-02T08:33:50.926Z,7.34
2023-04-02T08:39:01.446Z,7.35
2023-04-02T08:44:24.146Z,7.37
2023-04-02T08:49:37.809Z,7.39
2023-04-02T08:54:45.752Z,7.42
2023-04-02T09:00:00.483Z,7.44
2023-04-02T09:05:19.750Z,7.48
2023-04-02T09:10:35.601Z,7.50
2023-04-02T09:15:42.720Z,7.53
2023-04-02T09:20:50.581Z,7.57
2023-04-02T09:26:04.261Z,7.59
2023-04-02T09:31:21.671Z,7.62
2023-04-02T09:36:37.780Z,7.65
2023-04-02T09:41:50.209Z,7.67
2023-04-02T09:47:05.260Z,7.69
2023-04-02T09:52:22.411Z,7.72
2023-04-02T09:57:30.117Z,7.74
2023-04-02T10:02:37.746Z,7.78
2023-04-02T10:07:48.382Z,7.82
2023-04-02T10:13:01.908Z,7.86
2023-04-02T10:18:18.627Z,7.91
2023-04-02T10:23:29.455Z,7.97
2023-04-02T10:28:55.044Z,8.03
2023-04-02T10:34:07.380Z,8.10
2023-04-02T10:39:18.567Z,8.16
2023-04-02T10:44:44.449Z,8.23
2023-04-02T10:49:59.893Z,8.31
2023-04-02T10:55:15.663Z,8.39
2023-04-02T11:00:28.260Z,8.48
2023-04-02T11:05:44.562Z,8.56
2023-04-02T11:10:54.815Z,8.66
2023-04-02T11:16:02.502Z,8.74
2023-04-02T11:26:47.717Z,8.93
2023-04-02T11:32:31.577Z,8.89
2023-04-02T11:37:43.205Z,8.86
2023-04-02T11:42:51.709Z,8.86
2023-04-02T11:48:34.242Z,8.88
2023-04-02T11:53:44.186Z,8.90
2023-04-02T11:59:00.120Z,8.91
2023-04-02T12:04:43.972Z,8.95
2023-04-02T12:09:54.405Z,8.99
2023-04-02T12:15:02.783Z,9.03
2023-04-02T12:20:33.751Z,9.06
2023-04-02T12:25:42.073Z,9.10
2023-04-02T12:30:50.624Z,9.14
2023-04-02T12:36:02.023Z,9.18
2023-04-02T12:41:22.005Z,9.21
2023-04-02T12:46:29.700Z,9.25
2023-04-02T12:51:38.237Z,9.28
2023-04-02T12:56:45.924Z,9.31
2023-04-02T13:02:02.103Z,9.33
2023-04-02T13:07:18.191Z,9.37
2023-04-02T13:12:34.379Z,9.41
2023-04-02T13:17:44.119Z,9.45
2023-04-02T13:22:51.640Z,9.49
2023-04-02T13:27:59.547Z,9.30
2023-04-02T13:33:07.171Z,8.76
2023-04-02T13:38:14.946Z,8.40
2023-04-02T13:43:23.697Z,8.13
2023-04-02T13:48:31.048Z,7.91
2023-04-02T13:53:38.551Z,7.73
2023-04-02T13:58:47.215Z,7.60
2023-04-02T14:03:55.411Z,7.50
2023-04-02T14:09:06.022Z,7.44
2023-04-02T14:14:36.334Z,7.38
2023-04-02T14:20:06.848Z,7.34
2023-04-02T14:25:22.473Z,7.31
2023-04-02T14:30:38.844Z,7.29
2023-04-02T14:35:52.171Z,7.28
2023-04-02T14:41:06.568Z,7.27
2023-04-02T14:46:14.078Z,7.29
2023-04-02T14:51:28.548Z,7.30
2023-04-02T14:56:41.110Z,7.50
2023-04-02T15:01:51.830Z,8.01
2023-04-02T15:07:04.758Z,8.35
2023-04-02T15:12:16.524Z,8.41
2023-04-02T15:17:24.267Z,8.11
2023-04-02T15:22:40.092Z,7.96
2023-04-02T15:28:02.021Z,7.87
2023-04-02T15:33:36.330Z,7.80
2023-04-02T15:38:46.449Z,7.73
2023-04-02T15:44:04.590Z,7.67
2023-04-02T15:49:28.699Z,7.62
2023-04-02T15:54:55.064Z,7.56
2023-04-02T16:00:31.213Z,7.52
2023-04-02T16:05:44.636Z,7.46
2023-04-02T16:10:51.893Z,7.41
2023-04-02T16:16:05.944Z,7.36
2023-04-02T16:21:16.479Z,7.30
2023-04-02T16:26:41.011Z,7.26
2023-04-02T16:31:54.504Z,7.21
2023-04-02T16:37:10.598Z,7.16
2023-04-02T16:42:30.087Z,7.11
2023-04-02T16:47:57.914Z,7.06
2023-04-02T16:53:15.189Z,7.01
2023-04-02T16:58:36.506Z,6.96
2023-04-02T17:04:08.821Z,6.92
2023-04-02T17:09:22.406Z,6.86
2023-04-02T17:14:40.670Z,6.83
2023-04-02T17:19:49.535Z,6.78
2023-04-02T17:25:00.339Z,6.74
2023-04-02T17:30:14.873Z,6.70
2023-04-02T17:35:32.524Z,6.65
2023-04-02T17:40:44.947Z,6.61
2023-04-02T17:45:56.682Z,6.56
2023-04-02T17:51:17.263Z,6.51
2023-04-02T17:56:40.757Z,6.45
2023-04-02T18:01:52.594Z,6.40
2023-04-02T18:07:22.596Z,6.34
2023-04-02T18:12:43.639Z,6.28
2023-04-02T18:17:55.467Z,6.21
2023-04-02T18:23:13.247Z,6.12
2023-04-02T18:28:48.366Z,6.05
2023-04-02T18:34:20.264Z,5.95
2023-04-02T18:39:38.664Z,5.87
2023-04-02T18:44:57.624Z,5.77
2023-04-02T18:50:17.629Z,5.68
2023-04-02T18:55:28.705Z,5.58
2023-04-02T19:00:40.918Z,5.49
2023-04-02T19:05:53.631Z,5.40
2023-04-02T19:11:03.653Z,5.31
2023-04-02T19:16:35.700Z,5.21
2023-04-02T19:21:56.218Z,5.13
2023-04-02T19:27:10.199Z,5.03
2023-04-02T19:32:29.254Z,4.94
2023-04-02T19:37:41.999Z,4.85
2023-04-02T19:42:51.104Z,4.77
2023-04-02T19:48:00.368Z,4.69
2023-04-02T19:53:07.705Z,4.60
2023-04-02T19:58:20.362Z,4.52
2023-04-02T20:03:28.027Z,4.44
2023-04-02T20:08:36.658Z,4.35
2023-04-02T20:13:43.882Z,4.28
2023-04-02T20:18:51.368Z,4.19
2023-04-02T20:23:58.585Z,4.11
2023-04-02T20:29:05.753Z,4.04
2023-04-02T20:34:14.142Z,3.96
2023-04-02T20:39:21.978Z,3.88
2023-04-02T20:44:29.205Z,3.81
2023-04-02T20:49:36.874Z,3.73
2023-04-02T20:54:44.248Z,3.65
2023-04-02T20:59:51.686Z,3.59
2023-04-02T21:04:59.428Z,3.52
2023-04-02T21:10:07.288Z,3.45
2023-04-02T21:15:15.103Z,3.37
2023-04-02T21:20:22.331Z,3.31
2023-04-02T21:25:29.654Z,3.24
2023-04-02T21:30:36.849Z,3.18
2023-04-02T21:35:44.076Z,3.10
2023-04-02T21:40:51.301Z,3.04
2023-04-02T21:46:01.898Z,2.99
2023-04-02T21:51:14.413Z,2.92
2023-04-02T21:56:23.118Z,2.86
2023-04-02T22:01:33.877Z,2.80
2023-04-02T22:06:43.465Z,2.74
2023-04-02T22:11:53.137Z,2.67
2023-04-02T22:17:00.513Z,2.62
2023-04-02T22:22:07.890Z,2.57
2023-04-02T22:27:15.207Z,2.51
2023-04-02T22:32:22.695Z,2.47
2023-04-02T22:37:34.314Z,2.40
2023-04-02T22:42:41.512Z,2.35
2023-04-02T22:47:48.657Z,2.31
2023-04-02T22:52:56.325Z,2.25
2023-04-02T22:58:03.529Z,2.20
2023-04-02T23:03:10.745Z,2.14
2023-04-02T23:08:18.195Z,2.08
2023-04-02T23:13:25.623Z,2.04
2023-04-02T23:18:33.114Z,1.98
2023-04-02T23:23:40.647Z,1.93
2023-04-02T23:28:48.507Z,1.89
2023-04-02T23:33:56.162Z,1.83
2023-04-02T23:39:08.360Z,1.79
2023-04-02T23:44:15.898Z,1.74
2023-04-02T23:49:23.146Z,1.69
2023-04-02T23:54:30.755Z,1.64
2023-04-02T23:59:40.455Z,1.60
